Time;durP1;ratioP1;P1;durP2;ratioP2;P2;SDS_P1;SDS_P2;PMS_P1;PMS_P2;Temp;Humidity;BMP_temperature;BMP_pressure;BME280_temperature;BME280_humidity;BME280_pressure;Samples;Min_cycle;Max_cycle;Signal;HPM_P1;HPM_P2
2023/06/24 00:02:10;;;;;;;14.00;10.52;;;;;;;22.40;56.06;93922.47;4969220;28;20113;-75
2023/06/24 00:04:35;;;;;;;14.82;11.20;;;;;;;22.28;56.21;93918.22;4969436;28;20409;-75
2023/06/24 00:07:01;;;;;;;17.30;11.48;;;;;;;22.32;56.37;93920.94;4966146;28;20085;-75
2023/06/24 00:09:30;;;;;;;13.25;10.90;;;;;;;22.22;57.05;93923.22;4974308;28;20041;-75
2023/06/24 00:11:59;;;;;;;13.25;10.68;;;;;;;22.21;56.63;93910.84;4967458;28;20056;-74
2023/06/24 00:14:26;;;;;;;14.65;10.25;;;;;;;22.32;56.59;93920.94;4969568;28;20528;-75
2023/06/24 00:16:53;;;;;;;16.42;11.93;;;;;;;22.34;56.80;93924.03;4965843;28;20034;-75
2023/06/24 00:19:20;;;;;;;15.15;11.95;;;;;;;22.09;56.85;93897.66;4968764;28;20034;-75
2023/06/24 00:21:46;;;;;;;14.90;11.40;;;;;;;22.33;56.94;93907.00;4970468;28;20047;-76
2023/06/24 00:24:12;;;;;;;12.98;10.82;;;;;;;22.21;57.21;93916.25;4969998;28;20085;-75
2023/06/24 00:26:37;;;;;;;16.17;11.35;;;;;;;22.17;57.38;93923.59;4969526;28;20030;-75
2023/06/24 00:29:02;;;;;;;15.93;11.60;;;;;;;22.03;57.94;93920.84;4970925;28;20086;-75
2023/06/24 00:31:28;;;;;;;13.60;11.05;;;;;;;21.92;57.72;93914.59;4969368;28;20042;-74
2023/06/24 00:33:53;;;;;;;14.20;11.23;;;;;;;22.01;57.71;93920.44;4965409;28;20030;-74
2023/06/24 00:36:19;;;;;;;19.58;13.05;;;;;;;21.96;57.89;93915.38;4964928;28;20047;-74
2023/06/24 00:38:44;;;;;;;16.60;12.63;;;;;;;22.07;57.72;93932.44;4971010;28;20426;-75
2023/06/24 00:41:09;;;;;;;14.15;11.95;;;;;;;21.85;58.00;93914.59;4970406;28;20030;-75
2023/06/24 00:43:35;;;;;;;17.58;11.70;;;;;;;22.01;58.07;93928.56;4969536;28;20051;-75
2023/06/24 00:46:02;;;;;;;18.48;11.80;;;;;;;21.98;58.04;93929.34;4967479;28;20035;-75
2023/06/24 00:48:27;;;;;;;14.90;12.80;;;;;;;21.90;58.14;93919.66;4970035;28;20053;-75
2023/06/24 00:50:52;;;;;;;16.40;11.77;;;;;;;21.82;58.20;93902.59;4970983;28;20022;-75
2023/06/24 00:53:18;;;;;;;18.48;12.88;;;;;;;21.86;58.71;93911.50;4969682;28;20396;-74
2023/06/24 00:55:45;;;;;;;17.23;11.82;;;;;;;21.83;58.46;93908.78;4968550;28;20050;-75
2023/06/24 00:58:16;;;;;;;14.98;12.07;;;;;;;21.76;58.60;93895.22;4968277;28;20049;-75
2023/06/24 01:00:45;;;;;;;14.68;11.73;;;;;;;21.86;58.66;93905.28;4968878;28;20090;-75
2023/06/24 01:03:14;;;;;;;16.48;11.35;;;;;;;21.88;58.31;93905.72;4970127;28;20138;-75
2023/06/24 01:05:44;;;;;;;14.60;11.00;;;;;;;21.91;58.13;93902.22;4972077;28;20038;-75
2023/06/24 01:08:15;;;;;;;15.70;12.07;;;;;;;21.77;58.39;93888.66;4971252;28;20097;-74
2023/06/24 01:10:41;;;;;;;14.80;10.95;;;;;;;21.84;57.99;93903.00;4969397;28;20139;-75
2023/06/24 01:13:07;;;;;;;14.85;10.50;;;;;;;21.85;58.13;93901.81;4963612;28;20051;-74
2023/06/24 01:15:33;;;;;;;16.08;10.93;;;;;;;21.67;58.35;93881.25;4967925;28;20042;-75
2023/06/24 01:18:18;;;;;;;17.17;12.23;;;;;;;21.76;58.33;93897.91;4967012;28;20053;-75
2023/06/24 01:21:10;;;;;;;16.52;11.45;;;;;;;21.74;58.49;93892.91;4970884;28;20031;-75
2023/06/24 01:23:44;;;;;;;13.30;10.32;;;;;;;21.75;58.62;93893.69;4968752;28;20074;-74
2023/06/24 01:26:29;;;;;;;11.50;10.40;;;;;;;21.74;58.52;93897.53;4971961;28;20046;-75
2023/06/24 01:29:09;;;;;;;16.52;11.00;;;;;;;21.71;58.50;93887.47;4968000;28;20112;-75
2023/06/24 01:31:50;;;;;;;12.63;10.05;;;;;;;21.75;58.42;93894.47;4969401;28;20481;-74
2023/06/24 01:34:32;;;;;;;12.10;10.80;;;;;;;21.75;58.19;93905.28;4966892;28;20068;-74
2023/06/24 01:37:07;;;;;;;21.40;11.73;;;;;;;21.67;58.66;93902.91;4968290;28;20061;-76
2023/06/24 01:39:37;;;;;;;12.05;10.55;;;;;;;21.70;58.61;93913.00;4967636;28;20039;-75
2023/06/24 01:42:10;;;;;;;14.60;10.15;;;;;;;21.63;58.58;93923.78;4969158;28;20412;-75
2023/06/24 01:44:39;;;;;;;11.68;10.25;;;;;;;21.46;58.94;93914.41;4970261;28;20531;-75
2023/06/24 01:47:08;;;;;;;12.43;11.13;;;;;;;21.35;59.15;93908.94;4967094;28;20088;-74
2023/06/24 01:49:40;;;;;;;13.45;11.20;;;;;;;21.35;59.47;93924.38;4971566;28;20043;-74
2023/06/24 01:52:08;;;;;;;17.00;11.27;;;;;;;21.37;59.54;93933.66;4965210;28;20137;-75
2023/06/24 01:54:35;;;;;;;12.82;10.90;;;;;;;21.32;59.74;93930.53;4974947;28;20049;-74
2023/06/24 01:57:04;;;;;;;15.55;12.23;;;;;;;21.32;59.82;93936.72;4966793;28;20109;-74
2023/06/24 01:59:29;;;;;;;15.65;12.57;;;;;;;21.28;59.94;93924.34;4969899;28;20247;-75
2023/06/24 02:01:55;;;;;;;12.82;11.52;;;;;;;21.32;59.42;93920.50;4968272;28;20034;-74
2023/06/24 02:04:22;;;;;;;13.10;10.85;;;;;;;21.21;59.71;93918.91;4964192;28;20576;-74
2023/06/24 02:06:48;;;;;;;12.35;10.10;;;;;;;21.16;59.73;93911.94;4968310;28;20041;-74
2023/06/24 02:09:17;;;;;;;17.00;12.23;;;;;;;21.35;59.76;93932.50;4965614;28;20038;-75
2023/06/24 02:11:44;;;;;;;12.98;10.77;;;;;;;21.19;59.85;93932.78;4968169;28;20026;-74
2023/06/24 02:14:12;;;;;;;18.20;11.40;;;;;;;21.23;60.08;93949.03;4967922;28;20061;-75
2023/06/24 02:16:42;;;;;;;12.18;10.02;;;;;;;21.16;60.18;93944.38;4966361;28;20034;-75
2023/06/24 02:19:09;;;;;;;13.77;10.98;;;;;;;21.10;60.33;93939.69;4968903;28;20568;-76
2023/06/24 02:21:38;;;;;;;15.32;11.32;;;;;;;21.12;60.42;93938.16;4968590;28;20158;-74
2023/06/24 02:24:05;;;;;;;12.20;10.45;;;;;;;21.16;60.19;93949.78;4968682;28;20567;-74
2023/06/24 02:26:30;;;;;;;11.70;10.50;;;;;;;21.16;59.96;93949.78;4969528;28;20290;-73
2023/06/24 02:28:57;;;;;;;12.30;10.35;;;;;;;21.14;59.96;93952.06;4977285;28;20042;-74
2023/06/24 02:31:22;;;;;;;11.02;9.90;;;;;;;21.21;59.80;93962.97;4985546;28;20543;-74
2023/06/24 02:33:48;;;;;;;12.80;10.75;;;;;;;21.27;59.77;93966.06;4989175;28;20022;-75
2023/06/24 02:36:13;;;;;;;15.65;10.85;;;;;;;21.25;59.36;93974.56;4991932;28;20041;-74
2023/06/24 02:38:39;;;;;;;13.73;12.10;;;;;;;21.13;59.57;93965.97;4994522;28;20089;-75
2023/06/24 02:41:04;;;;;;;16.67;12.48;;;;;;;21.26;59.42;93986.94;4991002;28;20041;-74
2023/06/24 02:43:30;;;;;;;14.52;11.57;;;;;;;21.26;59.45;93986.94;4990524;28;20041;-74
2023/06/24 02:46:00;;;;;;;13.05;11.40;;;;;;;21.26;59.79;93986.94;4997074;28;20718;-76
2023/06/24 02:48:28;;;;;;;15.65;11.18;;;;;;;21.28;59.28;93976.50;4992378;28;20669;-75
2023/06/24 02:50:54;;;;;;;13.50;11.77;;;;;;;21.36;59.24;93980.81;4994497;28;20026;-75
2023/06/24 02:53:19;;;;;;;13.05;11.50;;;;;;;21.39;59.40;93980.06;4991157;28;20025;-75
2023/06/24 02:55:45;;;;;;;13.52;11.77;;;;;;;21.42;59.20;93990.13;4992973;28;20038;-75
2023/06/24 02:58:12;;;;;;;13.82;11.18;;;;;;;21.35;59.64;93981.97;4989417;28;20096;-75
2023/06/24 03:00:37;;;;;;;13.27;11.23;;;;;;;21.33;59.68;93986.19;4990239;28;20084;-75
2023/06/24 03:03:05;;;;;;;14.02;12.07;;;;;;;21.39;59.87;94000.94;4996227;28;20441;-75
2023/06/24 03:05:32;;;;;;;12.80;11.13;;;;;;;21.33;59.78;93995.09;4992569;28;20033;-74
2023/06/24 03:07:58;;;;;;;15.55;11.57;;;;;;;21.37;59.92;93993.19;4989041;28;20403;-75
2023/06/24 03:10:24;;;;;;;16.60;11.90;;;;;;;21.38;60.05;93989.34;4992200;28;20026;-74
2023/06/24 03:12:51;;;;;;;15.45;11.50;;;;;;;21.37;59.63;93982.38;4988136;28;20034;-75
2023/06/24 03:15:16;;;;;;;20.75;15.60;;;;;;;21.41;59.23;93979.69;4991775;28;20048;-75
2023/06/24 03:17:42;;;;;;;41.70;26.15;;;;;;;21.46;59.15;93985.50;5005456;28;20393;-75
2023/06/24 03:20:08;;;;;;;36.28;26.33;;;;;;;21.48;59.43;94000.59;4990622;28;20519;-76
2023/06/24 03:22:34;;;;;;;20.00;15.52;;;;;;;21.52;59.23;93998.69;4990840;28;20101;-75
2023/06/24 03:25:00;;;;;;;15.60;12.40;;;;;;;21.51;59.16;93989.78;4996944;28;20054;-73
2023/06/24 03:27:25;;;;;;;17.45;11.82;;;;;;;21.53;59.73;93992.13;4989685;28;20066;-74
2023/06/24 03:29:50;;;;;;;14.23;11.07;;;;;;;21.47;60.18;93997.13;4993789;28;20547;-75
2023/06/24 03:32:16;;;;;;;17.13;11.68;;;;;;;21.43;59.97;93999.81;4990096;28;20061;-75
2023/06/24 03:34:41;;;;;;;14.68;11.80;;;;;;;21.48;60.59;94006.78;4989670;28;20027;-75
2023/06/24 03:37:07;;;;;;;15.43;11.80;;;;;;;21.54;59.71;94018.81;4987298;28;20034;-75
2023/06/24 03:39:32;;;;;;;19.13;10.80;;;;;;;21.57;59.35;94012.66;4989226;28;20085;-74
2023/06/24 03:41:58;;;;;;;16.27;11.65;;;;;;;21.55;59.68;94003.38;4989666;28;20025;-75
2023/06/24 03:44:23;;;;;;;12.90;11.50;;;;;;;21.67;59.59;94024.72;4992159;28;20033;-75
2023/06/24 03:46:48;;;;;;;14.55;11.82;;;;;;;21.70;59.71;94027.47;4991531;28;20030;-74
2023/06/24 03:49:14;;;;;;;15.88;13.27;;;;;;;21.65;59.33;94019.69;4990909;28;20034;-74
2023/06/24 03:51:39;;;;;;;15.10;11.80;;;;;;;21.77;59.45;94032.91;4986607;28;20611;-75
2023/06/24 03:54:04;;;;;;;14.85;12.00;;;;;;;21.70;60.43;94021.25;4991094;28;20046;-75
2023/06/24 03:56:30;;;;;;;18.67;10.82;;;;;;;21.76;60.15;94023.22;4989870;28;20474;-76
2023/06/24 03:58:55;;;;;;;15.82;13.25;;;;;;;21.89;59.86;94026.41;4993685;28;20064;-75
2023/06/24 04:01:20;;;;;;;16.15;11.98;;;;;;;21.91;60.20;94024.06;4995012;28;20539;-75
2023/06/24 04:03:46;;;;;;;14.80;12.52;;;;;;;21.90;60.58;94014.41;4990924;28;20038;-74
2023/06/24 04:06:12;;;;;;;15.40;12.93;;;;;;;22.06;60.35;94022.97;4991048;28;20065;-76
2023/06/24 04:08:43;;;;;;;14.98;12.75;;;;;;;22.02;60.51;94016.00;4991898;28;20017;-74
2023/06/24 04:11:09;;;;;;;16.60;13.15;;;;;;;22.05;60.57;94024.13;4986758;28;21199;-75
2023/06/24 04:13:35;;;;;;;20.00;13.57;;;;;;;22.16;59.77;94035.78;4989989;28;20103;-75
2023/06/24 04:16:01;;;;;;;16.80;14.32;;;;;;;22.21;59.31;94035.44;4984393;28;20042;-75
2023/06/24 04:18:26;;;;;;;14.90;12.93;;;;;;;22.22;59.32;94022.69;4989391;28;20368;-75
2023/06/24 04:20:52;;;;;;;15.40;13.88;;;;;;;22.28;59.38;94023.88;4987624;28;20028;-74
2023/06/24 04:23:17;;;;;;;14.38;12.70;;;;;;;22.34;59.17;94027.75;4992625;28;20516;-74
2023/06/24 04:25:43;;;;;;;20.70;14.95;;;;;;;22.39;59.02;94021.22;4989721;28;20394;-75
2023/06/24 04:28:08;;;;;;;17.70;14.43;;;;;;;22.49;58.27;94017.72;4990063;28;20038;-74
2023/06/24 04:30:38;;;;;;;15.77;13.85;;;;;;;22.55;57.58;94016.19;4988304;28;20512;-75
2023/06/24 04:33:04;;;;;;;19.17;15.07;;;;;;;22.59;57.96;94014.25;4989867;28;20041;-75
2023/06/24 04:35:30;;;;;;;15.50;13.90;;;;;;;22.52;58.17;94006.13;4987814;28;20850;-75
2023/06/24 04:37:56;;;;;;;16.15;13.02;;;;;;;22.44;58.59;94004.56;4989008;28;20035;-74
2023/06/24 04:40:21;;;;;;;17.48;14.60;;;;;;;22.20;60.30;94001.34;4991788;28;20081;-75
2023/06/24 04:42:46;;;;;;;18.73;12.95;;;;;;;22.19;60.31;94002.50;4988828;28;20466;-74
2023/06/24 04:45:12;;;;;;;16.38;13.10;;;;;;;22.34;60.40;94006.06;4989903;28;20116;-74
2023/06/24 04:47:37;;;;;;;15.85;13.25;;;;;;;22.60;59.37;94003.06;4990268;28;20108;-76
2023/06/24 04:50:04;;;;;;;15.75;13.07;;;;;;;22.65;58.70;94004.59;4989125;28;20050;-74
2023/06/24 04:52:29;;;;;;;14.25;12.77;;;;;;;22.77;59.06;94009.66;4988902;28;20050;-74
2023/06/24 04:54:55;;;;;;;17.85;13.23;;;;;;;22.58;59.04;94016.22;4987493;28;20044;-75
2023/06/24 04:57:25;;;;;;;17.60;14.55;;;;;;;22.48;59.59;94030.53;4988218;28;20045;-75
2023/06/24 04:59:51;;;;;;;18.15;14.05;;;;;;;22.56;59.26;94023.94;4989500;28;20051;-74
2023/06/24 05:02:16;;;;;;;16.58;14.82;;;;;;;22.66;59.16;94022.44;4990937;28;20515;-75
2023/06/24 05:04:41;;;;;;;17.40;13.88;;;;;;;22.80;58.16;94014.31;4986770;28;20034;-75
2023/06/24 05:07:07;;;;;;;17.50;14.82;;;;;;;22.60;59.23;94024.72;4989778;28;20131;-74
2023/06/24 05:09:32;;;;;;;16.92;13.80;;;;;;;22.72;59.46;94015.47;4988239;28;20156;-74
2023/06/24 05:11:57;;;;;;;16.67;13.77;;;;;;;22.95;59.00;94024.03;4988745;28;20037;-75
2023/06/24 05:14:23;;;;;;;18.88;14.65;;;;;;;23.05;58.09;94034.13;4989647;28;20046;-75
2023/06/24 05:16:48;;;;;;;19.88;13.45;;;;;;;23.14;58.26;94017.47;4979814;28;20508;-74
2023/06/24 05:19:14;;;;;;;16.63;14.73;;;;;;;23.40;55.64;94011.66;4982757;28;20072;-74
2023/06/24 05:21:39;;;;;;;17.60;14.45;;;;;;;23.44;55.78;94012.41;4976778;28;20129;-75
2023/06/24 05:24:05;;;;;;;21.83;15.07;;;;;;;23.45;55.71;94011.25;4987437;28;20050;-74
2023/06/24 05:26:30;;;;;;;18.65;14.50;;;;;;;23.50;55.87;94015.53;4989294;28;20468;-73
2023/06/24 05:28:56;;;;;;;18.20;14.35;;;;;;;23.46;55.85;94004.66;4986241;28;20046;-74
2023/06/24 05:31:21;;;;;;;18.08;13.25;;;;;;;23.68;56.64;94005.41;4988888;28;20129;-74
2023/06/24 05:33:46;;;;;;;18.20;14.25;;;;;;;23.74;54.85;93982.13;4993418;28;20580;-74
2023/06/24 05:36:12;;;;;;;19.25;13.60;;;;;;;23.83;54.99;93989.84;4989281;28;20199;-74
2023/06/24 05:38:37;;;;;;;23.52;15.18;;;;;;;23.71;54.72;93985.63;4989611;28;20484;-75
2023/06/24 05:41:02;;;;;;;20.45;15.38;;;;;;;23.80;55.11;94013.16;4984852;28;20054;-76
2023/06/24 05:43:28;;;;;;;16.98;14.30;;;;;;;23.59;55.84;94013.19;4989883;28;20381;-76
2023/06/24 05:45:53;;;;;;;20.88;14.35;;;;;;;23.64;55.54;93996.50;4987110;28;20041;-75
2023/06/24 05:48:19;;;;;;;18.73;14.48;;;;;;;23.91;54.29;94008.44;4988133;28;20540;-76
2023/06/24 05:50:45;;;;;;;17.13;13.63;;;;;;;24.04;54.59;94008.81;4987687;28;20029;-74
2023/06/24 05:53:12;;;;;;;20.05;15.85;;;;;;;23.65;55.11;94008.16;4986797;28;20113;-75
2023/06/24 05:55:38;;;;;;;18.98;15.13;;;;;;;23.88;55.04;94009.25;4989064;28;20030;-74
2023/06/24 05:58:03;;;;;;;19.08;14.90;;;;;;;23.95;54.87;94003.78;4987031;28;20045;-75
2023/06/24 06:00:29;;;;;;;19.17;14.05;;;;;;;24.08;54.60;93990.53;5003323;28;20045;-75
2023/06/24 06:02:54;;;;;;;17.33;13.65;;;;;;;24.19;54.58;93998.69;4987914;28;20040;-75
2023/06/24 06:05:19;;;;;;;15.60;13.70;;;;;;;24.09;53.73;93994.03;4988762;28;20346;-75
2023/06/24 06:07:45;;;;;;;15.60;13.73;;;;;;;24.21;53.18;93988.97;4992244;28;20553;-75
2023/06/24 06:10:10;;;;;;;13.60;12.20;;;;;;;24.19;54.18;93990.53;4989091;28;20045;-75
2023/06/24 06:12:36;;;;;;;13.55;12.15;;;;;;;24.28;52.97;93988.94;4992198;28;20257;-76
2023/06/24 06:15:01;;;;;;;14.77;11.30;;;;;;;24.19;52.64;93987.81;4991264;28;20050;-75
2023/06/24 06:17:26;;;;;;;21.63;12.27;;;;;;;24.21;52.16;93980.81;4991307;28;20300;-75
2023/06/24 06:19:52;;;;;;;11.40;10.20;;;;;;;24.14;52.72;93986.28;4989576;28;20529;-76
2023/06/24 06:22:18;;;;;;;12.02;10.77;;;;;;;24.26;51.93;93985.06;4989944;28;20022;-75
2023/06/24 06:24:43;;;;;;;12.73;11.00;;;;;;;24.46;51.64;94001.66;4992894;28;20079;-75
2023/06/24 06:27:13;;;;;;;12.73;11.43;;;;;;;24.09;52.71;93985.88;4991131;28;20034;-75
2023/06/24 06:29:38;;;;;;;11.95;10.73;;;;;;;24.46;53.24;93998.94;4993808;28;20026;-75
2023/06/24 06:32:04;;;;;;;12.13;10.75;;;;;;;24.69;53.03;93999.97;4992397;28;20045;-76
2023/06/24 06:34:30;;;;;;;16.55;11.43;;;;;;;24.75;52.11;93989.47;4991288;28;20034;-75
2023/06/24 06:36:55;;;;;;;13.32;11.95;;;;;;;24.65;51.37;93973.97;4989993;28;20027;-75
2023/06/24 06:39:21;;;;;;;13.10;11.75;;;;;;;24.81;52.09;93996.81;4991162;28;20405;-74
2023/06/24 06:41:46;;;;;;;14.93;12.13;;;;;;;25.10;49.98;94004.75;4991093;28;20124;-74
2023/06/24 06:44:11;;;;;;;14.88;13.10;;;;;;;24.98;50.25;94002.53;4993676;28;20596;-75
2023/06/24 06:46:37;;;;;;;17.20;11.98;;;;;;;25.16;50.43;94014.81;4989756;28;20107;-76
2023/06/24 06:49:02;;;;;;;13.93;12.38;;;;;;;25.26;50.69;94008.53;4992060;28;20130;-76
2023/06/24 06:51:27;;;;;;;16.75;12.18;;;;;;;25.22;49.64;93993.41;4992537;28;20412;-75
2023/06/24 06:53:53;;;;;;;15.93;13.85;;;;;;;25.31;49.60;94003.84;4991005;28;20073;-75
2023/06/24 06:56:28;;;;;;;14.32;12.27;;;;;;;25.34;49.63;94014.69;4989719;28;20068;-75
2023/06/24 06:58:53;;;;;;;16.58;12.13;;;;;;;25.39;49.58;93999.88;4991779;28;20049;-75
2023/06/24 07:01:19;;;;;;;14.95;13.30;;;;;;;25.35;48.94;94010.81;4990707;28;20037;-74
2023/06/24 07:03:45;;;;;;;14.23;12.77;;;;;;;25.52;49.31;93995.47;4989890;28;20043;-75
2023/06/24 07:06:10;;;;;;;17.17;13.50;;;;;;;25.64;48.25;94001.19;4992112;28;20030;-76
2023/06/24 07:08:36;;;;;;;16.83;13.35;;;;;;;25.68;48.36;94007.38;4990275;28;20396;-75
2023/06/24 07:11:02;;;;;;;16.98;13.15;;;;;;;25.65;48.76;93991.84;4986370;28;20042;-75
2023/06/24 07:13:27;;;;;;;16.02;14.35;;;;;;;25.86;50.02;94012.63;4988281;28;20528;-75
2023/06/24 07:15:53;;;;;;;18.40;13.98;;;;;;;25.68;48.88;94007.38;4990416;28;20035;-75
2023/06/24 07:18:18;;;;;;;17.10;13.48;;;;;;;25.83;48.44;94007.22;4992977;28;20045;-75
2023/06/24 07:20:43;;;;;;;16.30;13.55;;;;;;;25.88;48.26;94014.97;4989384;28;20092;-75
2023/06/24 07:23:10;;;;;;;19.65;13.63;;;;;;;25.79;47.77;94009.22;4992701;28;20038;-75
2023/06/24 07:25:35;;;;;;;16.30;14.57;;;;;;;25.95;48.61;94009.47;4988678;28;20041;-76
2023/06/24 07:28:00;;;;;;;20.60;14.23;;;;;;;26.00;47.83;94006.31;4992630;28;20038;-76
2023/06/24 07:30:26;;;;;;;15.10;13.48;;;;;;;25.91;47.59;94001.31;4991070;28;20034;-76
2023/06/24 07:32:51;;;;;;;16.08;13.80;;;;;;;25.81;48.08;93994.00;4989604;28;20054;-74
2023/06/24 07:35:18;;;;;;;16.30;12.40;;;;;;;25.91;49.32;94006.03;4991218;28;20018;-73
2023/06/24 07:37:44;;;;;;;17.20;13.98;;;;;;;25.96;48.28;94000.88;4989024;28;20405;-75
2023/06/24 07:40:10;;;;;;;15.10;13.50;;;;;;;26.11;48.24;94009.66;4994802;28;20085;-75
2023/06/24 07:42:35;;;;;;;17.20;13.43;;;;;;;25.96;48.23;93989.19;4988445;28;20137;-74
2023/06/24 07:45:00;;;;;;;20.05;15.38;;;;;;;25.79;48.12;94006.50;4991595;28;20123;-74
2023/06/24 07:47:26;;;;;;;18.27;15.35;;;;;;;25.62;49.34;93995.38;4990741;28;20504;-76
2023/06/24 07:49:52;;;;;;;17.40;14.10;;;;;;;25.73;49.24;93994.50;4987282;28;20043;-75
2023/06/24 07:52:17;;;;;;;18.27;14.02;;;;;;;25.89;48.89;94005.66;4990187;28;20519;-75
2023/06/24 07:54:43;;;;;;;20.10;15.02;;;;;;;25.84;47.57;94001.38;4990636;28;20161;-75
2023/06/24 07:57:08;;;;;;;16.85;13.93;;;;;;;25.80;49.02;94003.38;4988907;28;20039;-76
2023/06/24 07:59:34;;;;;;;16.30;14.60;;;;;;;25.98;47.29;93995.81;4992212;28;20040;-75
2023/06/24 08:01:59;;;;;;;17.15;15.10;;;;;;;26.10;48.29;94021.78;4988701;28;20065;-76
2023/06/24 08:04:24;;;;;;;18.38;15.88;;;;;;;25.86;48.65;94006.44;4991346;28;20108;-75
2023/06/24 08:06:50;;;;;;;16.63;14.80;;;;;;;25.86;48.25;94001.72;4991299;28;20045;-76
2023/06/24 08:09:17;;;;;;;17.98;14.88;;;;;;;25.76;48.86;94015.50;4992379;28;20417;-75
2023/06/24 08:11:42;;;;;;;26.35;14.88;;;;;;;25.74;48.26;94009.66;4990364;28;20029;-75
2023/06/24 08:14:08;;;;;;;18.70;14.30;;;;;;;25.75;49.32;94019.38;4987953;28;20046;-76
2023/06/24 08:16:33;;;;;;;22.90;15.35;;;;;;;26.00;48.14;94011.75;4985543;28;20609;-75
2023/06/24 08:18:59;;;;;;;16.60;14.13;;;;;;;26.06;48.71;94015.56;4990947;28;20128;-75
2023/06/24 08:21:24;;;;;;;15.50;13.90;;;;;;;26.15;48.87;94017.81;4991284;28;20033;-75
2023/06/24 08:23:51;;;;;;;17.60;15.57;;;;;;;26.11;48.38;94013.16;4989686;28;20030;-75
2023/06/24 08:26:17;;;;;;;17.45;15.65;;;;;;;25.95;47.79;93998.56;4991383;28;20049;-75
2023/06/24 08:28:42;;;;;;;20.77;15.07;;;;;;;25.98;47.78;94003.97;4988247;28;20153;-75
2023/06/24 08:31:07;;;;;;;17.27;14.35;;;;;;;25.83;49.06;94007.22;4990272;28;20369;-75
2023/06/24 08:33:33;;;;;;;22.65;15.52;;;;;;;26.00;47.66;94014.47;4988234;28;20591;-75
2023/06/24 08:35:58;;;;;;;18.98;14.65;;;;;;;25.97;47.90;94007.09;4990462;28;20365;-75
2023/06/24 08:38:24;;;;;;;17.67;15.00;;;;;;;26.07;47.66;94006.22;4988952;28;20106;-75
2023/06/24 08:40:49;;;;;;;19.17;13.70;;;;;;;25.91;49.34;94000.56;4989367;28;20038;-75
2023/06/24 08:43:15;;;;;;;17.15;13.75;;;;;;;26.06;48.93;93999.97;4989390;28;20046;-76
2023/06/24 08:45:40;;;;;;;19.13;15.25;;;;;;;26.09;48.37;93998.41;4985717;28;20536;-75
2023/06/24 08:48:07;;;;;;;17.33;14.65;;;;;;;26.01;48.12;93991.47;4990390;28;20513;-75
2023/06/24 08:50:37;;;;;;;16.05;14.20;;;;;;;25.91;48.62;93986.94;4989460;28;20049;-76
2023/06/24 08:53:08;;;;;;;17.95;13.65;;;;;;;25.93;48.46;93984.56;4989270;28;20149;-75
2023/06/24 08:55:39;;;;;;;18.77;14.00;;;;;;;25.98;50.28;93984.13;4992233;28;20053;-75
2023/06/24 08:58:04;;;;;;;16.77;14.52;;;;;;;25.97;49.29;93977.13;4987137;28;20707;-75
2023/06/24 09:00:30;;;;;;;18.50;14.32;;;;;;;25.77;49.23;93965.25;4988099;28;20045;-75
2023/06/24 09:02:55;;;;;;;16.25;14.65;;;;;;;25.91;48.91;93986.94;4988934;28;20030;-75
2023/06/24 09:05:21;;;;;;;20.60;14.77;;;;;;;26.01;49.45;93986.03;4988517;28;20046;-75
2023/06/24 09:07:46;;;;;;;18.50;13.95;;;;;;;26.11;49.26;93980.47;4986100;28;20038;-75
2023/06/24 09:10:29;;;;;;;21.25;13.45;;;;;;;26.18;48.40;93973.38;4988126;28;20107;-75
2023/06/24 09:12:55;;;;;;;16.63;13.88;;;;;;;26.17;48.44;93980.00;4986921;28;20093;-74
2023/06/24 09:15:20;;;;;;;18.40;13.70;;;;;;;26.02;48.59;93982.13;4989742;28;20509;-75
2023/06/24 09:17:48;;;;;;;16.90;13.90;;;;;;;26.22;48.75;93985.00;4989529;28;20173;-75
2023/06/24 09:20:14;;;;;;;18.02;14.55;;;;;;;26.23;48.42;93973.69;4991272;28;20067;-75
2023/06/24 09:22:42;;;;;;;15.93;14.00;;;;;;;26.55;48.21;93989.66;4986362;28;20042;-75
2023/06/24 09:25:07;;;;;;;16.52;13.40;;;;;;;26.41;47.35;93984.38;4985664;28;20610;-75
2023/06/24 09:27:33;;;;;;;15.98;13.50;;;;;;;26.22;48.21;93974.88;4990326;28;20920;-75
2023/06/24 09:29:58;;;;;;;16.85;13.77;;;;;;;26.42;50.11;93989.41;4987565;28;20034;-75
2023/06/24 09:32:31;;;;;;;14.13;12.05;;;;;;;26.53;47.26;93984.63;4997422;28;20481;-75
2023/06/24 09:34:57;;;;;;;17.40;12.02;;;;;;;26.48;47.34;93995.22;4985785;28;20053;-75
2023/06/24 09:37:23;;;;;;;18.83;13.25;;;;;;;26.44;47.64;93984.34;4986949;28;20030;-75
2023/06/24 09:39:49;;;;;;;12.30;11.10;;;;;;;26.37;46.48;93992.59;4988633;28;20089;-74
2023/06/24 09:42:14;;;;;;;15.25;12.95;;;;;;;26.45;45.16;93977.69;4990283;28;20085;-75
2023/06/24 09:44:40;;;;;;;14.18;12.75;;;;;;;26.42;45.86;93986.69;4996042;28;20034;-74
2023/06/24 09:47:05;;;;;;;14.63;12.20;;;;;;;26.37;46.36;93987.16;4985426;28;20038;-75
2023/06/24 09:49:31;;;;;;;14.73;11.63;;;;;;;26.24;47.76;93988.88;4990682;28;20092;-75
2023/06/24 09:51:58;;;;;;;16.23;12.63;;;;;;;26.35;48.27;93992.22;4987876;28;20554;-75
2023/06/24 09:54:28;;;;;;;14.13;12.15;;;;;;;26.55;47.45;93984.97;4987897;28;20045;-75
2023/06/24 09:56:57;;;;;;;16.42;13.52;;;;;;;26.57;46.12;93978.34;4986158;28;20083;-75
2023/06/24 09:59:24;;;;;;;14.05;11.43;;;;;;;26.39;48.03;93973.13;4989320;28;20026;-75
2023/06/24 10:01:53;;;;;;;16.40;11.80;;;;;;;26.32;46.52;93981.38;4988436;28;20037;-76
2023/06/24 10:04:21;;;;;;;17.10;11.50;;;;;;;26.49;45.63;93970.28;4989143;28;20033;-75
2023/06/24 10:06:47;;;;;;;14.68;12.75;;;;;;;26.57;46.88;93964.72;4987784;28;20038;-75
2023/06/24 10:09:16;;;;;;;18.83;12.65;;;;;;;26.26;47.05;93953.00;4986243;28;20492;-75
2023/06/24 10:11:43;;;;;;;13.40;12.07;;;;;;;26.41;47.68;93965.28;4988936;28;20029;-74
2023/06/24 10:14:08;;;;;;;16.80;11.63;;;;;;;26.58;46.46;93963.53;4987977;28;20078;-75
2023/06/24 10:16:34;;;;;;;14.35;11.02;;;;;;;26.37;45.24;93954.44;4987683;28;20035;-75
2023/06/24 10:19:03;;;;;;;12.45;11.25;;;;;;;26.58;45.87;93942.50;4987536;28;20420;-76
2023/06/24 10:21:51;;;;;;;12.82;10.93;;;;;;;26.73;44.43;93948.50;5003498;28;20561;-75
2023/06/24 10:24:32;;;;;;;11.88;10.63;;;;;;;26.60;44.45;93939.31;4987423;28;20057;-75
2023/06/24 10:27:05;;;;;;;13.27;10.73;;;;;;;26.56;44.93;93944.84;4986736;28;20301;-75
2023/06/24 10:29:32;;;;;;;15.48;10.45;;;;;;;26.53;44.60;93902.03;4988750;28;20370;-75
2023/06/24 10:32:02;;;;;;;13.45;10.45;;;;;;;26.85;43.81;93928.81;4986891;28;20141;-75
2023/06/24 10:34:37;;;;;;;11.85;10.20;;;;;;;26.64;44.32;93929.94;4986643;28;20504;-75
2023/06/24 10:37:10;;;;;;;15.55;10.27;;;;;;;26.81;43.83;93922.66;4987776;28;20108;-75
2023/06/24 10:39:39;;;;;;;12.10;10.55;;;;;;;26.85;43.86;93907.00;4987353;28;20069;-74
2023/06/24 10:42:26;;;;;;;13.10;10.25;;;;;;;26.99;42.50;93906.75;4986279;28;20373;-75
2023/06/24 10:44:54;;;;;;;11.02;9.98;;;;;;;27.05;44.06;93896.16;4991571;28;21107;-75
2023/06/24 10:47:19;;;;;;;11.85;10.65;;;;;;;27.05;43.57;93894.22;4987830;28;20427;-75
2023/06/24 10:49:45;;;;;;;13.65;10.40;;;;;;;27.16;42.84;93886.63;4986457;28;20034;-76
2023/06/24 10:52:12;;;;;;;14.02;11.02;;;;;;;27.19;44.01;93880.31;4990956;28;20586;-75
2023/06/24 10:54:39;;;;;;;12.95;11.65;;;;;;;27.23;45.27;93885.69;4989441;28;20129;-76
2023/06/24 10:57:05;;;;;;;12.18;11.05;;;;;;;27.46;46.05;93884.91;4989542;28;20574;-75
2023/06/24 10:59:40;;;;;;;12.95;10.25;;;;;;;27.42;42.78;93879.53;4989614;28;20052;-75
2023/06/24 11:02:08;;;;;;;12.02;9.55;;;;;;;27.26;43.15;93882.91;4998754;28;20046;-75
2023/06/24 11:04:34;;;;;;;14.07;9.82;;;;;;;27.36;42.77;93875.72;4990469;28;20041;-75
2023/06/24 11:07:00;;;;;;;14.07;10.80;;;;;;;27.19;43.32;93880.31;4992090;28;20046;-75
2023/06/24 11:09:26;;;;;;;11.25;9.82;;;;;;;27.07;42.19;93853.63;4992007;28;20034;-75
2023/06/24 11:11:52;;;;;;;13.25;10.75;;;;;;;27.45;45.96;93869.69;4987951;28;20037;-75
2023/06/24 11:14:19;;;;;;;14.15;9.93;;;;;;;27.65;42.59;93875.97;4993669;28;20057;-74
2023/06/24 11:16:48;;;;;;;10.02;8.82;;;;;;;27.58;44.18;93865.19;4989231;28;20061;-75